<?xml version="1.0" encoding="UTF-8" standalone="no" ?>
<gpx xmlns="http://www.topografix.com/GPX/1/1" xmlns:xsi="http://www.w3.org/2001/XMLSchema-instance" xsi:schemaLocation="http://www.topografix.com/GPX/1/1 http://www.topografix.com/GPX/1/1/gpx.xsd" version="1.1" creator="VisuGPX - https://www.visugpx.com">
  <metadata>
    <name>12974850-Colardiere Hucheloup Grassiere</name>
  </metadata>
  <trk>
    <name><![CDATA[12974850-Colardiere Hucheloup Grassiere]]></name>
    <trkseg>
      <trkpt lat="47.03604" lon="-1.18399">
        <ele>50</ele>
        <time>2021-05-03T12:20:32Z</time>
      </trkpt>
      <trkpt lat="47.03603" lon="-1.18408">
        <ele>51</ele>
        <time>2021-05-03T12:20:40Z</time>
      </trkpt>
      <trkpt lat="47.03606" lon="-1.18427">
        <ele>50</ele>
        <time>2021-05-03T12:20:58Z</time>
      </trkpt>
      <trkpt lat="47.03615" lon="-1.18468">
        <ele>48</ele>
        <time>2021-05-03T12:21:37Z</time>
      </trkpt>
      <trkpt lat="47.03603" lon="-1.18495">
        <ele>49</ele>
        <time>2021-05-03T12:22:07Z</time>
      </trkpt>
      <trkpt lat="47.036" lon="-1.18532">
        <ele>49</ele>
        <time>2021-05-03T12:22:40Z</time>
      </trkpt>
      <trkpt lat="47.03601" lon="-1.18545">
        <ele>49</ele>
        <time>2021-05-03T12:22:52Z</time>
      </trkpt>
      <trkpt lat="47.03608" lon="-1.18553">
        <ele>48</ele>
        <time>2021-05-03T12:23:04Z</time>
      </trkpt>
      <trkpt lat="47.03623" lon="-1.18549">
        <ele>47</ele>
        <time>2021-05-03T12:23:24Z</time>
      </trkpt>
      <trkpt lat="47.03641" lon="-1.18552">
        <ele>46</ele>
        <time>2021-05-03T12:23:49Z</time>
      </trkpt>
      <trkpt lat="47.03659" lon="-1.18563">
        <ele>45</ele>
        <time>2021-05-03T12:24:15Z</time>
      </trkpt>
      <trkpt lat="47.03673" lon="-1.18586">
        <ele>45</ele>
        <time>2021-05-03T12:24:43Z</time>
      </trkpt>
      <trkpt lat="47.0368" lon="-1.18614">
        <ele>47</ele>
        <time>2021-05-03T12:25:10Z</time>
      </trkpt>
      <trkpt lat="47.0368" lon="-1.18668">
        <ele>51</ele>
        <time>2021-05-03T12:25:59Z</time>
      </trkpt>
      <trkpt lat="47.03683" lon="-1.18699">
        <ele>53</ele>
        <time>2021-05-03T12:26:27Z</time>
      </trkpt>
      <trkpt lat="47.0369" lon="-1.18728">
        <ele>54</ele>
        <time>2021-05-03T12:26:55Z</time>
      </trkpt>
      <trkpt lat="47.03703" lon="-1.18747">
        <ele>52</ele>
        <time>2021-05-03T12:27:20Z</time>
      </trkpt>
      <trkpt lat="47.03736" lon="-1.1876">
        <ele>46</ele>
        <time>2021-05-03T12:28:06Z</time>
      </trkpt>
      <trkpt lat="47.03755" lon="-1.18787">
        <ele>47</ele>
        <time>2021-05-03T12:28:41Z</time>
      </trkpt>
      <trkpt lat="47.0378" lon="-1.18884">
        <ele>52</ele>
        <time>2021-05-03T12:30:15Z</time>
      </trkpt>
      <trkpt lat="47.0379" lon="-1.18871">
        <ele>49</ele>
        <time>2021-05-03T12:30:33Z</time>
      </trkpt>
      <trkpt lat="47.03808" lon="-1.18926">
        <ele>46</ele>
        <time>2021-05-03T12:31:28Z</time>
      </trkpt>
      <trkpt lat="47.03813" lon="-1.1893">
        <ele>46</ele>
        <time>2021-05-03T12:31:36Z</time>
      </trkpt>
      <trkpt lat="47.03833" lon="-1.18971">
        <ele>45</ele>
        <time>2021-05-03T12:32:22Z</time>
      </trkpt>
      <trkpt lat="47.03856" lon="-1.18997">
        <ele>47</ele>
        <time>2021-05-03T12:33:01Z</time>
      </trkpt>
      <trkpt lat="47.03871" lon="-1.19024">
        <ele>48</ele>
        <time>2021-05-03T12:33:32Z</time>
      </trkpt>
      <trkpt lat="47.03879" lon="-1.19032">
        <ele>48</ele>
        <time>2021-05-03T12:33:45Z</time>
      </trkpt>
      <trkpt lat="47.03889" lon="-1.19068">
        <ele>47</ele>
        <time>2021-05-03T12:34:21Z</time>
      </trkpt>
      <trkpt lat="47.03883" lon="-1.19108">
        <ele>49</ele>
        <time>2021-05-03T12:34:58Z</time>
      </trkpt>
      <trkpt lat="47.0387" lon="-1.19122">
        <ele>52</ele>
        <time>2021-05-03T12:35:19Z</time>
      </trkpt>
      <trkpt lat="47.03863" lon="-1.19144">
        <ele>55</ele>
        <time>2021-05-03T12:35:41Z</time>
      </trkpt>
      <trkpt lat="47.03856" lon="-1.19177">
        <ele>57</ele>
        <time>2021-05-03T12:36:13Z</time>
      </trkpt>
      <trkpt lat="47.03861" lon="-1.19186">
        <ele>55</ele>
        <time>2021-05-03T12:36:23Z</time>
      </trkpt>
      <trkpt lat="47.03862" lon="-1.19203">
        <ele>54</ele>
        <time>2021-05-03T12:36:39Z</time>
      </trkpt>
      <trkpt lat="47.0385" lon="-1.1925">
        <ele>55</ele>
        <time>2021-05-03T12:37:25Z</time>
      </trkpt>
      <trkpt lat="47.03847" lon="-1.19252">
        <ele>56</ele>
        <time>2021-05-03T12:37:29Z</time>
      </trkpt>
      <trkpt lat="47.03842" lon="-1.19264">
        <ele>57</ele>
        <time>2021-05-03T12:37:42Z</time>
      </trkpt>
      <trkpt lat="47.03837" lon="-1.19266">
        <ele>58</ele>
        <time>2021-05-03T12:37:49Z</time>
      </trkpt>
      <trkpt lat="47.0383" lon="-1.19258">
        <ele>60</ele>
        <time>2021-05-03T12:38:01Z</time>
      </trkpt>
      <trkpt lat="47.03823" lon="-1.19256">
        <ele>61</ele>
        <time>2021-05-03T12:38:10Z</time>
      </trkpt>
      <trkpt lat="47.03815" lon="-1.19247">
        <ele>62</ele>
        <time>2021-05-03T12:38:24Z</time>
      </trkpt>
      <trkpt lat="47.03792" lon="-1.19231">
        <ele>64</ele>
        <time>2021-05-03T12:38:57Z</time>
      </trkpt>
      <trkpt lat="47.03777" lon="-1.19236">
        <ele>65</ele>
        <time>2021-05-03T12:39:18Z</time>
      </trkpt>
      <trkpt lat="47.03732" lon="-1.19313">
        <ele>66</ele>
        <time>2021-05-03T12:40:50Z</time>
      </trkpt>
      <trkpt lat="47.03712" lon="-1.19319">
        <ele>67</ele>
        <time>2021-05-03T12:41:17Z</time>
      </trkpt>
      <trkpt lat="47.03576" lon="-1.1933">
        <ele>67</ele>
        <time>2021-05-03T12:44:19Z</time>
      </trkpt>
      <trkpt lat="47.03542" lon="-1.1934">
        <ele>66</ele>
        <time>2021-05-03T12:45:06Z</time>
      </trkpt>
      <trkpt lat="47.03476" lon="-1.19368">
        <ele>63</ele>
        <time>2021-05-03T12:46:37Z</time>
      </trkpt>
      <trkpt lat="47.03423" lon="-1.19398">
        <ele>61</ele>
        <time>2021-05-03T12:47:53Z</time>
      </trkpt>
      <trkpt lat="47.03391" lon="-1.19378">
        <ele>60</ele>
        <time>2021-05-03T12:48:39Z</time>
      </trkpt>
      <trkpt lat="47.03372" lon="-1.19377">
        <ele>60</ele>
        <time>2021-05-03T12:49:05Z</time>
      </trkpt>
      <trkpt lat="47.03362" lon="-1.19399">
        <ele>60</ele>
        <time>2021-05-03T12:49:29Z</time>
      </trkpt>
      <trkpt lat="47.0331" lon="-1.19472">
        <ele>62</ele>
        <time>2021-05-03T12:51:05Z</time>
      </trkpt>
      <trkpt lat="47.0328" lon="-1.19509">
        <ele>64</ele>
        <time>2021-05-03T12:51:57Z</time>
      </trkpt>
      <trkpt lat="47.0325" lon="-1.19534">
        <ele>66</ele>
        <time>2021-05-03T12:52:43Z</time>
      </trkpt>
      <trkpt lat="47.03239" lon="-1.19549">
        <ele>67</ele>
        <time>2021-05-03T12:53:03Z</time>
      </trkpt>
      <trkpt lat="47.03237" lon="-1.19593">
        <ele>68</ele>
        <time>2021-05-03T12:53:43Z</time>
      </trkpt>
      <trkpt lat="47.03241" lon="-1.19679">
        <ele>68</ele>
        <time>2021-05-03T12:55:02Z</time>
      </trkpt>
      <trkpt lat="47.03238" lon="-1.19769">
        <ele>69</ele>
        <time>2021-05-03T12:56:24Z</time>
      </trkpt>
      <trkpt lat="47.03267" lon="-1.19875">
        <ele>69</ele>
        <time>2021-05-03T12:58:08Z</time>
      </trkpt>
      <trkpt lat="47.03279" lon="-1.1991">
        <ele>69</ele>
        <time>2021-05-03T12:58:43Z</time>
      </trkpt>
      <trkpt lat="47.03289" lon="-1.1996">
        <ele>69</ele>
        <time>2021-05-03T12:59:31Z</time>
      </trkpt>
      <trkpt lat="47.03322" lon="-1.20139">
        <ele>72</ele>
        <time>2021-05-03T13:02:19Z</time>
      </trkpt>
      <trkpt lat="47.03337" lon="-1.20245">
        <ele>71</ele>
        <time>2021-05-03T13:03:58Z</time>
      </trkpt>
      <trkpt lat="47.03337" lon="-1.20319">
        <ele>72</ele>
        <time>2021-05-03T13:05:05Z</time>
      </trkpt>
      <trkpt lat="47.03368" lon="-1.2046">
        <ele>72</ele>
        <time>2021-05-03T13:07:20Z</time>
      </trkpt>
      <trkpt lat="47.03372" lon="-1.20468">
        <ele>72</ele>
        <time>2021-05-03T13:07:29Z</time>
      </trkpt>
      <trkpt lat="47.03416" lon="-1.20471">
        <ele>71</ele>
        <time>2021-05-03T13:08:28Z</time>
      </trkpt>
      <trkpt lat="47.03493" lon="-1.20465">
        <ele>70</ele>
        <time>2021-05-03T13:10:11Z</time>
      </trkpt>
      <trkpt lat="47.03568" lon="-1.20469">
        <ele>67</ele>
        <time>2021-05-03T13:11:51Z</time>
      </trkpt>
      <trkpt lat="47.03585" lon="-1.20485">
        <ele>67</ele>
        <time>2021-05-03T13:12:18Z</time>
      </trkpt>
      <trkpt lat="47.03597" lon="-1.20485">
        <ele>66</ele>
        <time>2021-05-03T13:12:34Z</time>
      </trkpt>
      <trkpt lat="47.03613" lon="-1.2049">
        <ele>64</ele>
        <time>2021-05-03T13:12:56Z</time>
      </trkpt>
      <trkpt lat="47.03661" lon="-1.20537">
        <ele>60</ele>
        <time>2021-05-03T13:14:13Z</time>
      </trkpt>
      <trkpt lat="47.03685" lon="-1.20546">
        <ele>58</ele>
        <time>2021-05-03T13:14:46Z</time>
      </trkpt>
      <trkpt lat="47.03706" lon="-1.20538">
        <ele>57</ele>
        <time>2021-05-03T13:15:15Z</time>
      </trkpt>
      <trkpt lat="47.03726" lon="-1.20506">
        <ele>55</ele>
        <time>2021-05-03T13:15:54Z</time>
      </trkpt>
      <trkpt lat="47.03768" lon="-1.20485">
        <ele>53</ele>
        <time>2021-05-03T13:16:53Z</time>
      </trkpt>
      <trkpt lat="47.03802" lon="-1.20457">
        <ele>53</ele>
        <time>2021-05-03T13:17:45Z</time>
      </trkpt>
      <trkpt lat="47.03833" lon="-1.20423">
        <ele>51</ele>
        <time>2021-05-03T13:18:37Z</time>
      </trkpt>
      <trkpt lat="47.03857" lon="-1.20392">
        <ele>51</ele>
        <time>2021-05-03T13:19:20Z</time>
      </trkpt>
      <trkpt lat="47.03888" lon="-1.20316">
        <ele>48</ele>
        <time>2021-05-03T13:20:40Z</time>
      </trkpt>
      <trkpt lat="47.03908" lon="-1.20296">
        <ele>45</ele>
        <time>2021-05-03T13:21:12Z</time>
      </trkpt>
      <trkpt lat="47.0405" lon="-1.20257">
        <ele>35</ele>
        <time>2021-05-03T13:24:25Z</time>
      </trkpt>
      <trkpt lat="47.04081" lon="-1.20269">
        <ele>35</ele>
        <time>2021-05-03T13:25:08Z</time>
      </trkpt>
      <trkpt lat="47.04159" lon="-1.20336">
        <ele>36</ele>
        <time>2021-05-03T13:27:09Z</time>
      </trkpt>
      <trkpt lat="47.04202" lon="-1.2036">
        <ele>42</ele>
        <time>2021-05-03T13:28:10Z</time>
      </trkpt>
      <trkpt lat="47.04201" lon="-1.20393">
        <ele>46</ele>
        <time>2021-05-03T13:28:40Z</time>
      </trkpt>
      <trkpt lat="47.04205" lon="-1.20419">
        <ele>49</ele>
        <time>2021-05-03T13:29:04Z</time>
      </trkpt>
      <trkpt lat="47.04226" lon="-1.20461">
        <ele>53</ele>
        <time>2021-05-03T13:29:52Z</time>
      </trkpt>
      <trkpt lat="47.0423" lon="-1.20474">
        <ele>54</ele>
        <time>2021-05-03T13:30:05Z</time>
      </trkpt>
      <trkpt lat="47.0423" lon="-1.20504">
        <ele>57</ele>
        <time>2021-05-03T13:30:32Z</time>
      </trkpt>
      <trkpt lat="47.04251" lon="-1.20669">
        <ele>65</ele>
        <time>2021-05-03T13:33:05Z</time>
      </trkpt>
      <trkpt lat="47.04277" lon="-1.20788">
        <ele>66</ele>
        <time>2021-05-03T13:34:58Z</time>
      </trkpt>
      <trkpt lat="47.0429" lon="-1.20822">
        <ele>67</ele>
        <time>2021-05-03T13:35:34Z</time>
      </trkpt>
      <trkpt lat="47.04331" lon="-1.20902">
        <ele>69</ele>
        <time>2021-05-03T13:37:05Z</time>
      </trkpt>
      <trkpt lat="47.04348" lon="-1.20926">
        <ele>70</ele>
        <time>2021-05-03T13:37:36Z</time>
      </trkpt>
      <trkpt lat="47.04414" lon="-1.20951">
        <ele>71</ele>
        <time>2021-05-03T13:39:07Z</time>
      </trkpt>
      <trkpt lat="47.04447" lon="-1.20969">
        <ele>70</ele>
        <time>2021-05-03T13:39:54Z</time>
      </trkpt>
      <trkpt lat="47.04488" lon="-1.21">
        <ele>71</ele>
        <time>2021-05-03T13:40:56Z</time>
      </trkpt>
      <trkpt lat="47.04504" lon="-1.2103">
        <ele>70</ele>
        <time>2021-05-03T13:41:30Z</time>
      </trkpt>
      <trkpt lat="47.04505" lon="-1.21044">
        <ele>69</ele>
        <time>2021-05-03T13:41:43Z</time>
      </trkpt>
      <trkpt lat="47.04497" lon="-1.21061">
        <ele>69</ele>
        <time>2021-05-03T13:42:02Z</time>
      </trkpt>
      <trkpt lat="47.04513" lon="-1.21069">
        <ele>68</ele>
        <time>2021-05-03T13:42:24Z</time>
      </trkpt>
      <trkpt lat="47.04531" lon="-1.21048">
        <ele>67</ele>
        <time>2021-05-03T13:42:55Z</time>
      </trkpt>
      <trkpt lat="47.04556" lon="-1.21067">
        <ele>65</ele>
        <time>2021-05-03T13:43:33Z</time>
      </trkpt>
      <trkpt lat="47.04582" lon="-1.21071">
        <ele>64</ele>
        <time>2021-05-03T13:44:08Z</time>
      </trkpt>
      <trkpt lat="47.04596" lon="-1.21076">
        <ele>62</ele>
        <time>2021-05-03T13:44:27Z</time>
      </trkpt>
      <trkpt lat="47.04602" lon="-1.21088">
        <ele>61</ele>
        <time>2021-05-03T13:44:40Z</time>
      </trkpt>
      <trkpt lat="47.04608" lon="-1.21084">
        <ele>61</ele>
        <time>2021-05-03T13:44:49Z</time>
      </trkpt>
      <trkpt lat="47.04669" lon="-1.21088">
        <ele>53</ele>
        <time>2021-05-03T13:46:11Z</time>
      </trkpt>
      <trkpt lat="47.04678" lon="-1.21083">
        <ele>52</ele>
        <time>2021-05-03T13:46:23Z</time>
      </trkpt>
      <trkpt lat="47.04713" lon="-1.21035">
        <ele>47</ele>
        <time>2021-05-03T13:47:27Z</time>
      </trkpt>
      <trkpt lat="47.04717" lon="-1.21025">
        <ele>46</ele>
        <time>2021-05-03T13:47:38Z</time>
      </trkpt>
      <trkpt lat="47.04715" lon="-1.21007">
        <ele>46</ele>
        <time>2021-05-03T13:47:54Z</time>
      </trkpt>
      <trkpt lat="47.04708" lon="-1.21003">
        <ele>46</ele>
        <time>2021-05-03T13:48:05Z</time>
      </trkpt>
      <trkpt lat="47.047" lon="-1.20991">
        <ele>47</ele>
        <time>2021-05-03T13:48:20Z</time>
      </trkpt>
      <trkpt lat="47.04707" lon="-1.2092">
        <ele>42</ele>
        <time>2021-05-03T13:49:25Z</time>
      </trkpt>
      <trkpt lat="47.04718" lon="-1.20924">
        <ele>41</ele>
        <time>2021-05-03T13:49:40Z</time>
      </trkpt>
      <trkpt lat="47.04728" lon="-1.20931">
        <ele>39</ele>
        <time>2021-05-03T13:49:55Z</time>
      </trkpt>
      <trkpt lat="47.04751" lon="-1.20959">
        <ele>38</ele>
        <time>2021-05-03T13:50:35Z</time>
      </trkpt>
      <trkpt lat="47.0478" lon="-1.20972">
        <ele>39</ele>
        <time>2021-05-03T13:51:15Z</time>
      </trkpt>
      <trkpt lat="47.04829" lon="-1.2097">
        <ele>39</ele>
        <time>2021-05-03T13:52:21Z</time>
      </trkpt>
      <trkpt lat="47.04855" lon="-1.20985">
        <ele>40</ele>
        <time>2021-05-03T13:52:58Z</time>
      </trkpt>
      <trkpt lat="47.04873" lon="-1.20988">
        <ele>39</ele>
        <time>2021-05-03T13:53:22Z</time>
      </trkpt>
      <trkpt lat="47.04943" lon="-1.20968">
        <ele>35</ele>
        <time>2021-05-03T13:54:57Z</time>
      </trkpt>
      <trkpt lat="47.04974" lon="-1.20986">
        <ele>35</ele>
        <time>2021-05-03T13:55:42Z</time>
      </trkpt>
      <trkpt lat="47.05028" lon="-1.21008">
        <ele>35</ele>
        <time>2021-05-03T13:56:57Z</time>
      </trkpt>
      <trkpt lat="47.05038" lon="-1.21034">
        <ele>36</ele>
        <time>2021-05-03T13:57:24Z</time>
      </trkpt>
      <trkpt lat="47.0504" lon="-1.21104">
        <ele>38</ele>
        <time>2021-05-03T13:58:27Z</time>
      </trkpt>
      <trkpt lat="47.05025" lon="-1.21132">
        <ele>39</ele>
        <time>2021-05-03T13:59:00Z</time>
      </trkpt>
      <trkpt lat="47.05013" lon="-1.21225">
        <ele>38</ele>
        <time>2021-05-03T14:00:26Z</time>
      </trkpt>
      <trkpt lat="47.05015" lon="-1.21243">
        <ele>38</ele>
        <time>2021-05-03T14:00:42Z</time>
      </trkpt>
      <trkpt lat="47.05028" lon="-1.21288">
        <ele>39</ele>
        <time>2021-05-03T14:01:27Z</time>
      </trkpt>
      <trkpt lat="47.05013" lon="-1.21299">
        <ele>41</ele>
        <time>2021-05-03T14:01:49Z</time>
      </trkpt>
      <trkpt lat="47.0503" lon="-1.21346">
        <ele>42</ele>
        <time>2021-05-03T14:02:38Z</time>
      </trkpt>
      <trkpt lat="47.05053" lon="-1.21383">
        <ele>40</ele>
        <time>2021-05-03T14:03:23Z</time>
      </trkpt>
      <trkpt lat="47.05072" lon="-1.21429">
        <ele>38</ele>
        <time>2021-05-03T14:04:12Z</time>
      </trkpt>
      <trkpt lat="47.05084" lon="-1.21442">
        <ele>36</ele>
        <time>2021-05-03T14:04:32Z</time>
      </trkpt>
      <trkpt lat="47.05105" lon="-1.21452">
        <ele>36</ele>
        <time>2021-05-03T14:05:01Z</time>
      </trkpt>
      <trkpt lat="47.0511" lon="-1.21464">
        <ele>36</ele>
        <time>2021-05-03T14:05:14Z</time>
      </trkpt>
      <trkpt lat="47.05136" lon="-1.21497">
        <ele>33</ele>
        <time>2021-05-03T14:06:00Z</time>
      </trkpt>
      <trkpt lat="47.0514" lon="-1.21513">
        <ele>34</ele>
        <time>2021-05-03T14:06:16Z</time>
      </trkpt>
      <trkpt lat="47.05144" lon="-1.21514">
        <ele>34</ele>
        <time>2021-05-03T14:06:21Z</time>
      </trkpt>
      <trkpt lat="47.05151" lon="-1.21533">
        <ele>34</ele>
        <time>2021-05-03T14:06:41Z</time>
      </trkpt>
      <trkpt lat="47.05159" lon="-1.21543">
        <ele>34</ele>
        <time>2021-05-03T14:06:55Z</time>
      </trkpt>
      <trkpt lat="47.05183" lon="-1.21562">
        <ele>33</ele>
        <time>2021-05-03T14:07:31Z</time>
      </trkpt>
      <trkpt lat="47.052" lon="-1.21564">
        <ele>32</ele>
        <time>2021-05-03T14:07:54Z</time>
      </trkpt>
      <trkpt lat="47.05229" lon="-1.21576">
        <ele>30</ele>
        <time>2021-05-03T14:08:34Z</time>
      </trkpt>
      <trkpt lat="47.05238" lon="-1.21586">
        <ele>29</ele>
        <time>2021-05-03T14:08:49Z</time>
      </trkpt>
      <trkpt lat="47.05267" lon="-1.21572">
        <ele>29</ele>
        <time>2021-05-03T14:09:30Z</time>
      </trkpt>
      <trkpt lat="47.05283" lon="-1.21569">
        <ele>29</ele>
        <time>2021-05-03T14:09:51Z</time>
      </trkpt>
      <trkpt lat="47.05293" lon="-1.21573">
        <ele>29</ele>
        <time>2021-05-03T14:10:05Z</time>
      </trkpt>
      <trkpt lat="47.05299" lon="-1.21583">
        <ele>29</ele>
        <time>2021-05-03T14:10:17Z</time>
      </trkpt>
      <trkpt lat="47.05306" lon="-1.21608">
        <ele>29</ele>
        <time>2021-05-03T14:10:42Z</time>
      </trkpt>
      <trkpt lat="47.05313" lon="-1.21645">
        <ele>29</ele>
        <time>2021-05-03T14:11:17Z</time>
      </trkpt>
      <trkpt lat="47.05331" lon="-1.21687">
        <ele>29</ele>
        <time>2021-05-03T14:12:02Z</time>
      </trkpt>
      <trkpt lat="47.05349" lon="-1.21738">
        <ele>30</ele>
        <time>2021-05-03T14:12:54Z</time>
      </trkpt>
      <trkpt lat="47.05357" lon="-1.21779">
        <ele>31</ele>
        <time>2021-05-03T14:13:33Z</time>
      </trkpt>
      <trkpt lat="47.05369" lon="-1.21888">
        <ele>30</ele>
        <time>2021-05-03T14:15:13Z</time>
      </trkpt>
      <trkpt lat="47.05367" lon="-1.21917">
        <ele>29</ele>
        <time>2021-05-03T14:15:40Z</time>
      </trkpt>
      <trkpt lat="47.05361" lon="-1.21948">
        <ele>31</ele>
        <time>2021-05-03T14:16:09Z</time>
      </trkpt>
      <trkpt lat="47.05361" lon="-1.21963">
        <ele>31</ele>
        <time>2021-05-03T14:16:23Z</time>
      </trkpt>
      <trkpt lat="47.05385" lon="-1.22014">
        <ele>32</ele>
        <time>2021-05-03T14:17:19Z</time>
      </trkpt>
      <trkpt lat="47.05441" lon="-1.22097">
        <ele>33</ele>
        <time>2021-05-03T14:19:05Z</time>
      </trkpt>
      <trkpt lat="47.05465" lon="-1.22108">
        <ele>34</ele>
        <time>2021-05-03T14:19:39Z</time>
      </trkpt>
      <trkpt lat="47.05483" lon="-1.22105">
        <ele>33</ele>
        <time>2021-05-03T14:20:03Z</time>
      </trkpt>
      <trkpt lat="47.05495" lon="-1.22088">
        <ele>32</ele>
        <time>2021-05-03T14:20:25Z</time>
      </trkpt>
      <trkpt lat="47.0553" lon="-1.22086">
        <ele>32</ele>
        <time>2021-05-03T14:21:12Z</time>
      </trkpt>
      <trkpt lat="47.05576" lon="-1.22107">
        <ele>33</ele>
        <time>2021-05-03T14:22:16Z</time>
      </trkpt>
      <trkpt lat="47.0559" lon="-1.22111">
        <ele>33</ele>
        <time>2021-05-03T14:22:35Z</time>
      </trkpt>
      <trkpt lat="47.05608" lon="-1.22131">
        <ele>34</ele>
        <time>2021-05-03T14:23:05Z</time>
      </trkpt>
      <trkpt lat="47.05692" lon="-1.22273">
        <ele>33</ele>
        <time>2021-05-03T14:25:56Z</time>
      </trkpt>
      <trkpt lat="47.05714" lon="-1.22321">
        <ele>32</ele>
        <time>2021-05-03T14:26:49Z</time>
      </trkpt>
      <trkpt lat="47.05716" lon="-1.2234">
        <ele>32</ele>
        <time>2021-05-03T14:27:07Z</time>
      </trkpt>
      <trkpt lat="47.05715" lon="-1.22366">
        <ele>31</ele>
        <time>2021-05-03T14:27:30Z</time>
      </trkpt>
      <trkpt lat="47.05708" lon="-1.22429">
        <ele>32</ele>
        <time>2021-05-03T14:28:28Z</time>
      </trkpt>
      <trkpt lat="47.05726" lon="-1.22444">
        <ele>32</ele>
        <time>2021-05-03T14:28:56Z</time>
      </trkpt>
      <trkpt lat="47.05736" lon="-1.22426">
        <ele>30</ele>
        <time>2021-05-03T14:29:17Z</time>
      </trkpt>
      <trkpt lat="47.05766" lon="-1.22442">
        <ele>30</ele>
        <time>2021-05-03T14:30:00Z</time>
      </trkpt>
      <trkpt lat="47.05775" lon="-1.22451">
        <ele>31</ele>
        <time>2021-05-03T14:30:14Z</time>
      </trkpt>
      <trkpt lat="47.05775" lon="-1.22462">
        <ele>31</ele>
        <time>2021-05-03T14:30:24Z</time>
      </trkpt>
      <trkpt lat="47.05759" lon="-1.22489">
        <ele>32</ele>
        <time>2021-05-03T14:30:57Z</time>
      </trkpt>
      <trkpt lat="47.05744" lon="-1.22507">
        <ele>33</ele>
        <time>2021-05-03T14:31:22Z</time>
      </trkpt>
      <trkpt lat="47.05743" lon="-1.22513">
        <ele>34</ele>
        <time>2021-05-03T14:31:28Z</time>
      </trkpt>
      <trkpt lat="47.05753" lon="-1.22525">
        <ele>35</ele>
        <time>2021-05-03T14:31:45Z</time>
      </trkpt>
      <trkpt lat="47.05745" lon="-1.22561">
        <ele>39</ele>
        <time>2021-05-03T14:32:20Z</time>
      </trkpt>
      <trkpt lat="47.0575" lon="-1.22555">
        <ele>38</ele>
        <time>2021-05-03T14:32:28Z</time>
      </trkpt>
      <trkpt lat="47.05758" lon="-1.22553">
        <ele>38</ele>
        <time>2021-05-03T14:32:39Z</time>
      </trkpt>
      <trkpt lat="47.05772" lon="-1.2254">
        <ele>37</ele>
        <time>2021-05-03T14:33:01Z</time>
      </trkpt>
      <trkpt lat="47.05787" lon="-1.22544">
        <ele>37</ele>
        <time>2021-05-03T14:33:22Z</time>
      </trkpt>
      <trkpt lat="47.05793" lon="-1.22555">
        <ele>39</ele>
        <time>2021-05-03T14:33:34Z</time>
      </trkpt>
      <trkpt lat="47.058" lon="-1.22545">
        <ele>38</ele>
        <time>2021-05-03T14:33:48Z</time>
      </trkpt>
      <trkpt lat="47.05816" lon="-1.22546">
        <ele>38</ele>
        <time>2021-05-03T14:34:09Z</time>
      </trkpt>
      <trkpt lat="47.05858" lon="-1.22506">
        <ele>33</ele>
        <time>2021-05-03T14:35:16Z</time>
      </trkpt>
      <trkpt lat="47.05905" lon="-1.22488">
        <ele>33</ele>
        <time>2021-05-03T14:36:21Z</time>
      </trkpt>
      <trkpt lat="47.05901" lon="-1.2248">
        <ele>32</ele>
        <time>2021-05-03T14:36:30Z</time>
      </trkpt>
      <trkpt lat="47.05902" lon="-1.22468">
        <ele>32</ele>
        <time>2021-05-03T14:36:41Z</time>
      </trkpt>
      <trkpt lat="47.0591" lon="-1.22459">
        <ele>31</ele>
        <time>2021-05-03T14:36:54Z</time>
      </trkpt>
      <trkpt lat="47.05898" lon="-1.22403">
        <ele>31</ele>
        <time>2021-05-03T14:37:47Z</time>
      </trkpt>
      <trkpt lat="47.05906" lon="-1.22399">
        <ele>31</ele>
        <time>2021-05-03T14:37:59Z</time>
      </trkpt>
      <trkpt lat="47.05918" lon="-1.22384">
        <ele>33</ele>
        <time>2021-05-03T14:38:20Z</time>
      </trkpt>
      <trkpt lat="47.05948" lon="-1.22365">
        <ele>35</ele>
        <time>2021-05-03T14:39:03Z</time>
      </trkpt>
      <trkpt lat="47.05985" lon="-1.22357">
        <ele>35</ele>
        <time>2021-05-03T14:39:53Z</time>
      </trkpt>
      <trkpt lat="47.05991" lon="-1.22343">
        <ele>37</ele>
        <time>2021-05-03T14:40:08Z</time>
      </trkpt>
      <trkpt lat="47.05983" lon="-1.22299">
        <ele>42</ele>
        <time>2021-05-03T14:40:50Z</time>
      </trkpt>
      <trkpt lat="47.05984" lon="-1.22286">
        <ele>44</ele>
        <time>2021-05-03T14:41:01Z</time>
      </trkpt>
      <trkpt lat="47.0598" lon="-1.22267">
        <ele>46</ele>
        <time>2021-05-03T14:41:20Z</time>
      </trkpt>
      <trkpt lat="47.05994" lon="-1.22241">
        <ele>48</ele>
        <time>2021-05-03T14:41:50Z</time>
      </trkpt>
      <trkpt lat="47.05991" lon="-1.22195">
        <ele>49</ele>
        <time>2021-05-03T14:42:32Z</time>
      </trkpt>
      <trkpt lat="47.05971" lon="-1.22197">
        <ele>49</ele>
        <time>2021-05-03T14:42:58Z</time>
      </trkpt>
      <trkpt lat="47.05885" lon="-1.22163">
        <ele>52</ele>
        <time>2021-05-03T14:44:57Z</time>
      </trkpt>
      <trkpt lat="47.05856" lon="-1.22149">
        <ele>52</ele>
        <time>2021-05-03T14:45:38Z</time>
      </trkpt>
      <trkpt lat="47.05807" lon="-1.22119">
        <ele>50</ele>
        <time>2021-05-03T14:46:49Z</time>
      </trkpt>
      <trkpt lat="47.05788" lon="-1.22105">
        <ele>50</ele>
        <time>2021-05-03T14:47:17Z</time>
      </trkpt>
      <trkpt lat="47.05777" lon="-1.22088">
        <ele>50</ele>
        <time>2021-05-03T14:47:39Z</time>
      </trkpt>
      <trkpt lat="47.05743" lon="-1.22018">
        <ele>51</ele>
        <time>2021-05-03T14:48:57Z</time>
      </trkpt>
      <trkpt lat="47.05726" lon="-1.21969">
        <ele>52</ele>
        <time>2021-05-03T14:49:47Z</time>
      </trkpt>
      <trkpt lat="47.05716" lon="-1.21884">
        <ele>54</ele>
        <time>2021-05-03T14:51:05Z</time>
      </trkpt>
      <trkpt lat="47.05679" lon="-1.21691">
        <ele>56</ele>
        <time>2021-05-03T14:54:07Z</time>
      </trkpt>
      <trkpt lat="47.05675" lon="-1.21649">
        <ele>56</ele>
        <time>2021-05-03T14:54:46Z</time>
      </trkpt>
      <trkpt lat="47.05674" lon="-1.21556">
        <ele>52</ele>
        <time>2021-05-03T14:56:11Z</time>
      </trkpt>
      <trkpt lat="47.05682" lon="-1.21511">
        <ele>51</ele>
        <time>2021-05-03T14:56:53Z</time>
      </trkpt>
      <trkpt lat="47.05684" lon="-1.21473">
        <ele>51</ele>
        <time>2021-05-03T14:57:27Z</time>
      </trkpt>
      <trkpt lat="47.05677" lon="-1.21433">
        <ele>52</ele>
        <time>2021-05-03T14:58:05Z</time>
      </trkpt>
      <trkpt lat="47.05672" lon="-1.21338">
        <ele>55</ele>
        <time>2021-05-03T14:59:32Z</time>
      </trkpt>
      <trkpt lat="47.05668" lon="-1.21321">
        <ele>56</ele>
        <time>2021-05-03T14:59:48Z</time>
      </trkpt>
      <trkpt lat="47.05646" lon="-1.21289">
        <ele>56</ele>
        <time>2021-05-03T15:00:29Z</time>
      </trkpt>
      <trkpt lat="47.05635" lon="-1.21237">
        <ele>57</ele>
        <time>2021-05-03T15:01:19Z</time>
      </trkpt>
      <trkpt lat="47.05654" lon="-1.21177">
        <ele>60</ele>
        <time>2021-05-03T15:02:19Z</time>
      </trkpt>
      <trkpt lat="47.05663" lon="-1.21172">
        <ele>61</ele>
        <time>2021-05-03T15:02:32Z</time>
      </trkpt>
      <trkpt lat="47.05672" lon="-1.21145">
        <ele>60</ele>
        <time>2021-05-03T15:02:59Z</time>
      </trkpt>
      <trkpt lat="47.05699" lon="-1.21103">
        <ele>59</ele>
        <time>2021-05-03T15:03:52Z</time>
      </trkpt>
      <trkpt lat="47.05736" lon="-1.21073">
        <ele>57</ele>
        <time>2021-05-03T15:04:48Z</time>
      </trkpt>
      <trkpt lat="47.05769" lon="-1.2105">
        <ele>56</ele>
        <time>2021-05-03T15:05:37Z</time>
      </trkpt>
      <trkpt lat="47.05791" lon="-1.21049">
        <ele>57</ele>
        <time>2021-05-03T15:06:06Z</time>
      </trkpt>
      <trkpt lat="47.05826" lon="-1.21084">
        <ele>59</ele>
        <time>2021-05-03T15:07:03Z</time>
      </trkpt>
      <trkpt lat="47.05841" lon="-1.21093">
        <ele>59</ele>
        <time>2021-05-03T15:07:24Z</time>
      </trkpt>
      <trkpt lat="47.05868" lon="-1.21065">
        <ele>59</ele>
        <time>2021-05-03T15:08:08Z</time>
      </trkpt>
      <trkpt lat="47.05894" lon="-1.21021">
        <ele>59</ele>
        <time>2021-05-03T15:09:01Z</time>
      </trkpt>
      <trkpt lat="47.05929" lon="-1.20973">
        <ele>58</ele>
        <time>2021-05-03T15:10:05Z</time>
      </trkpt>
      <trkpt lat="47.05898" lon="-1.20926">
        <ele>56</ele>
        <time>2021-05-03T15:11:05Z</time>
      </trkpt>
      <trkpt lat="47.05837" lon="-1.20845">
        <ele>58</ele>
        <time>2021-05-03T15:12:55Z</time>
      </trkpt>
      <trkpt lat="47.05785" lon="-1.2072">
        <ele>62</ele>
        <time>2021-05-03T15:15:08Z</time>
      </trkpt>
      <trkpt lat="47.05757" lon="-1.20676">
        <ele>63</ele>
        <time>2021-05-03T15:16:02Z</time>
      </trkpt>
      <trkpt lat="47.05748" lon="-1.2064">
        <ele>63</ele>
        <time>2021-05-03T15:16:37Z</time>
      </trkpt>
      <trkpt lat="47.05704" lon="-1.20564">
        <ele>64</ele>
        <time>2021-05-03T15:18:08Z</time>
      </trkpt>
      <trkpt lat="47.05675" lon="-1.20493">
        <ele>67</ele>
        <time>2021-05-03T15:19:23Z</time>
      </trkpt>
      <trkpt lat="47.05655" lon="-1.20432">
        <ele>66</ele>
        <time>2021-05-03T15:20:25Z</time>
      </trkpt>
      <trkpt lat="47.05632" lon="-1.20304">
        <ele>67</ele>
        <time>2021-05-03T15:22:25Z</time>
      </trkpt>
      <trkpt lat="47.05615" lon="-1.20234">
        <ele>68</ele>
        <time>2021-05-03T15:23:33Z</time>
      </trkpt>
      <trkpt lat="47.05599" lon="-1.20191">
        <ele>68</ele>
        <time>2021-05-03T15:24:17Z</time>
      </trkpt>
      <trkpt lat="47.05572" lon="-1.20147">
        <ele>67</ele>
        <time>2021-05-03T15:25:11Z</time>
      </trkpt>
      <trkpt lat="47.05554" lon="-1.20111">
        <ele>65</ele>
        <time>2021-05-03T15:25:52Z</time>
      </trkpt>
      <trkpt lat="47.05528" lon="-1.20091">
        <ele>63</ele>
        <time>2021-05-03T15:26:31Z</time>
      </trkpt>
      <trkpt lat="47.05497" lon="-1.20077">
        <ele>61</ele>
        <time>2021-05-03T15:27:14Z</time>
      </trkpt>
      <trkpt lat="47.05469" lon="-1.2006">
        <ele>62</ele>
        <time>2021-05-03T15:27:55Z</time>
      </trkpt>
      <trkpt lat="47.05461" lon="-1.20051">
        <ele>62</ele>
        <time>2021-05-03T15:28:08Z</time>
      </trkpt>
      <trkpt lat="47.05437" lon="-1.19983">
        <ele>64</ele>
        <time>2021-05-03T15:29:18Z</time>
      </trkpt>
      <trkpt lat="47.05415" lon="-1.19937">
        <ele>63</ele>
        <time>2021-05-03T15:30:09Z</time>
      </trkpt>
      <trkpt lat="47.05385" lon="-1.199">
        <ele>63</ele>
        <time>2021-05-03T15:31:01Z</time>
      </trkpt>
      <trkpt lat="47.05378" lon="-1.19896">
        <ele>63</ele>
        <time>2021-05-03T15:31:11Z</time>
      </trkpt>
      <trkpt lat="47.05361" lon="-1.19895">
        <ele>63</ele>
        <time>2021-05-03T15:31:34Z</time>
      </trkpt>
      <trkpt lat="47.05348" lon="-1.19905">
        <ele>63</ele>
        <time>2021-05-03T15:31:53Z</time>
      </trkpt>
      <trkpt lat="47.05298" lon="-1.19968">
        <ele>62</ele>
        <time>2021-05-03T15:33:21Z</time>
      </trkpt>
      <trkpt lat="47.05266" lon="-1.20003">
        <ele>62</ele>
        <time>2021-05-03T15:34:15Z</time>
      </trkpt>
      <trkpt lat="47.05313" lon="-1.20425">
        <ele>57</ele>
        <time>2021-05-03T15:40:43Z</time>
      </trkpt>
      <trkpt lat="47.05338" lon="-1.20627">
        <ele>60</ele>
        <time>2021-05-03T15:43:50Z</time>
      </trkpt>
      <trkpt lat="47.05344" lon="-1.20746">
        <ele>60</ele>
        <time>2021-05-03T15:45:38Z</time>
      </trkpt>
      <trkpt lat="47.0534" lon="-1.20838">
        <ele>59</ele>
        <time>2021-05-03T15:47:02Z</time>
      </trkpt>
      <trkpt lat="47.05378" lon="-1.20933">
        <ele>57</ele>
        <time>2021-05-03T15:48:42Z</time>
      </trkpt>
      <trkpt lat="47.05388" lon="-1.20982">
        <ele>56</ele>
        <time>2021-05-03T15:49:29Z</time>
      </trkpt>
      <trkpt lat="47.05389" lon="-1.21015">
        <ele>55</ele>
        <time>2021-05-03T15:49:59Z</time>
      </trkpt>
      <trkpt lat="47.05386" lon="-1.21039">
        <ele>54</ele>
        <time>2021-05-03T15:50:21Z</time>
      </trkpt>
      <trkpt lat="47.05381" lon="-1.21051">
        <ele>54</ele>
        <time>2021-05-03T15:50:34Z</time>
      </trkpt>
      <trkpt lat="47.05363" lon="-1.21081">
        <ele>53</ele>
        <time>2021-05-03T15:51:10Z</time>
      </trkpt>
      <trkpt lat="47.05351" lon="-1.21095">
        <ele>53</ele>
        <time>2021-05-03T15:51:31Z</time>
      </trkpt>
      <trkpt lat="47.05347" lon="-1.21106">
        <ele>53</ele>
        <time>2021-05-03T15:51:42Z</time>
      </trkpt>
      <trkpt lat="47.05345" lon="-1.21142">
        <ele>52</ele>
        <time>2021-05-03T15:52:15Z</time>
      </trkpt>
      <trkpt lat="47.053" lon="-1.21115">
        <ele>54</ele>
        <time>2021-05-03T15:53:20Z</time>
      </trkpt>
      <trkpt lat="47.05309" lon="-1.21159">
        <ele>53</ele>
        <time>2021-05-03T15:54:02Z</time>
      </trkpt>
      <trkpt lat="47.05305" lon="-1.21194">
        <ele>52</ele>
        <time>2021-05-03T15:54:34Z</time>
      </trkpt>
      <trkpt lat="47.05305" lon="-1.21245">
        <ele>50</ele>
        <time>2021-05-03T15:55:20Z</time>
      </trkpt>
      <trkpt lat="47.05301" lon="-1.21255">
        <ele>50</ele>
        <time>2021-05-03T15:55:31Z</time>
      </trkpt>
      <trkpt lat="47.05302" lon="-1.21285">
        <ele>49</ele>
        <time>2021-05-03T15:55:58Z</time>
      </trkpt>
      <trkpt lat="47.05311" lon="-1.2136">
        <ele>45</ele>
        <time>2021-05-03T15:57:07Z</time>
      </trkpt>
      <trkpt lat="47.05304" lon="-1.21397">
        <ele>43</ele>
        <time>2021-05-03T15:57:42Z</time>
      </trkpt>
      <trkpt lat="47.05271" lon="-1.21448">
        <ele>40</ele>
        <time>2021-05-03T15:58:46Z</time>
      </trkpt>
      <trkpt lat="47.05215" lon="-1.21468">
        <ele>36</ele>
        <time>2021-05-03T16:00:03Z</time>
      </trkpt>
      <trkpt lat="47.05196" lon="-1.21463">
        <ele>36</ele>
        <time>2021-05-03T16:00:29Z</time>
      </trkpt>
      <trkpt lat="47.05184" lon="-1.21444">
        <ele>38</ele>
        <time>2021-05-03T16:00:52Z</time>
      </trkpt>
      <trkpt lat="47.05174" lon="-1.21443">
        <ele>37</ele>
        <time>2021-05-03T16:01:06Z</time>
      </trkpt>
      <trkpt lat="47.05163" lon="-1.21438">
        <ele>37</ele>
        <time>2021-05-03T16:01:21Z</time>
      </trkpt>
      <trkpt lat="47.05154" lon="-1.2141">
        <ele>40</ele>
        <time>2021-05-03T16:01:49Z</time>
      </trkpt>
      <trkpt lat="47.05147" lon="-1.214">
        <ele>40</ele>
        <time>2021-05-03T16:02:02Z</time>
      </trkpt>
      <trkpt lat="47.05139" lon="-1.21381">
        <ele>41</ele>
        <time>2021-05-03T16:02:23Z</time>
      </trkpt>
      <trkpt lat="47.05129" lon="-1.21368">
        <ele>41</ele>
        <time>2021-05-03T16:02:40Z</time>
      </trkpt>
      <trkpt lat="47.05124" lon="-1.21351">
        <ele>41</ele>
        <time>2021-05-03T16:02:57Z</time>
      </trkpt>
      <trkpt lat="47.05117" lon="-1.21339">
        <ele>40</ele>
        <time>2021-05-03T16:03:12Z</time>
      </trkpt>
      <trkpt lat="47.05115" lon="-1.21327">
        <ele>40</ele>
        <time>2021-05-03T16:03:23Z</time>
      </trkpt>
      <trkpt lat="47.05108" lon="-1.2132">
        <ele>39</ele>
        <time>2021-05-03T16:03:34Z</time>
      </trkpt>
      <trkpt lat="47.05105" lon="-1.21311">
        <ele>39</ele>
        <time>2021-05-03T16:03:43Z</time>
      </trkpt>
      <trkpt lat="47.05106" lon="-1.21297">
        <ele>40</ele>
        <time>2021-05-03T16:03:56Z</time>
      </trkpt>
      <trkpt lat="47.05104" lon="-1.21285">
        <ele>39</ele>
        <time>2021-05-03T16:04:07Z</time>
      </trkpt>
      <trkpt lat="47.05095" lon="-1.2128">
        <ele>38</ele>
        <time>2021-05-03T16:04:20Z</time>
      </trkpt>
      <trkpt lat="47.05085" lon="-1.21239">
        <ele>37</ele>
        <time>2021-05-03T16:05:00Z</time>
      </trkpt>
      <trkpt lat="47.05082" lon="-1.21236">
        <ele>36</ele>
        <time>2021-05-03T16:05:05Z</time>
      </trkpt>
      <trkpt lat="47.05082" lon="-1.21207">
        <ele>37</ele>
        <time>2021-05-03T16:05:31Z</time>
      </trkpt>
      <trkpt lat="47.05084" lon="-1.21201">
        <ele>37</ele>
        <time>2021-05-03T16:05:37Z</time>
      </trkpt>
      <trkpt lat="47.05079" lon="-1.21183">
        <ele>38</ele>
        <time>2021-05-03T16:05:55Z</time>
      </trkpt>
      <trkpt lat="47.05086" lon="-1.21177">
        <ele>38</ele>
        <time>2021-05-03T16:06:06Z</time>
      </trkpt>
      <trkpt lat="47.05084" lon="-1.21169">
        <ele>38</ele>
        <time>2021-05-03T16:06:13Z</time>
      </trkpt>
      <trkpt lat="47.05087" lon="-1.2116">
        <ele>38</ele>
        <time>2021-05-03T16:06:22Z</time>
      </trkpt>
      <trkpt lat="47.05081" lon="-1.21109">
        <ele>37</ele>
        <time>2021-05-03T16:07:09Z</time>
      </trkpt>
      <trkpt lat="47.05085" lon="-1.211">
        <ele>37</ele>
        <time>2021-05-03T16:07:19Z</time>
      </trkpt>
      <trkpt lat="47.05093" lon="-1.21061">
        <ele>37</ele>
        <time>2021-05-03T16:07:56Z</time>
      </trkpt>
      <trkpt lat="47.05117" lon="-1.2105">
        <ele>41</ele>
        <time>2021-05-03T16:08:30Z</time>
      </trkpt>
      <trkpt lat="47.05118" lon="-1.21034">
        <ele>41</ele>
        <time>2021-05-03T16:08:44Z</time>
      </trkpt>
      <trkpt lat="47.05079" lon="-1.2094">
        <ele>38</ele>
        <time>2021-05-03T16:10:24Z</time>
      </trkpt>
      <trkpt lat="47.05058" lon="-1.20864">
        <ele>42</ele>
        <time>2021-05-03T16:11:39Z</time>
      </trkpt>
      <trkpt lat="47.04962" lon="-1.20688">
        <ele>45</ele>
        <time>2021-05-03T16:15:04Z</time>
      </trkpt>
      <trkpt lat="47.04952" lon="-1.20659">
        <ele>45</ele>
        <time>2021-05-03T16:15:34Z</time>
      </trkpt>
      <trkpt lat="47.0494" lon="-1.20663">
        <ele>44</ele>
        <time>2021-05-03T16:15:50Z</time>
      </trkpt>
      <trkpt lat="47.04892" lon="-1.20665">
        <ele>41</ele>
        <time>2021-05-03T16:16:54Z</time>
      </trkpt>
      <trkpt lat="47.04867" lon="-1.20645">
        <ele>41</ele>
        <time>2021-05-03T16:17:32Z</time>
      </trkpt>
      <trkpt lat="47.04767" lon="-1.20614">
        <ele>43</ele>
        <time>2021-05-03T16:19:48Z</time>
      </trkpt>
      <trkpt lat="47.04753" lon="-1.20613">
        <ele>43</ele>
        <time>2021-05-03T16:20:07Z</time>
      </trkpt>
      <trkpt lat="47.04741" lon="-1.20629">
        <ele>41</ele>
        <time>2021-05-03T16:20:29Z</time>
      </trkpt>
      <trkpt lat="47.04724" lon="-1.20636">
        <ele>39</ele>
        <time>2021-05-03T16:20:52Z</time>
      </trkpt>
      <trkpt lat="47.04704" lon="-1.20636">
        <ele>39</ele>
        <time>2021-05-03T16:21:19Z</time>
      </trkpt>
      <trkpt lat="47.04692" lon="-1.20641">
        <ele>38</ele>
        <time>2021-05-03T16:21:36Z</time>
      </trkpt>
      <trkpt lat="47.04682" lon="-1.20642">
        <ele>38</ele>
        <time>2021-05-03T16:21:49Z</time>
      </trkpt>
      <trkpt lat="47.04642" lon="-1.20574">
        <ele>41</ele>
        <time>2021-05-03T16:23:11Z</time>
      </trkpt>
      <trkpt lat="47.04619" lon="-1.20441">
        <ele>39</ele>
        <time>2021-05-03T16:25:16Z</time>
      </trkpt>
      <trkpt lat="47.04625" lon="-1.20402">
        <ele>40</ele>
        <time>2021-05-03T16:25:52Z</time>
      </trkpt>
      <trkpt lat="47.04632" lon="-1.20378">
        <ele>41</ele>
        <time>2021-05-03T16:26:16Z</time>
      </trkpt>
      <trkpt lat="47.0465" lon="-1.20234">
        <ele>42</ele>
        <time>2021-05-03T16:28:29Z</time>
      </trkpt>
      <trkpt lat="47.04641" lon="-1.20197">
        <ele>42</ele>
        <time>2021-05-03T16:29:04Z</time>
      </trkpt>
      <trkpt lat="47.04633" lon="-1.20184">
        <ele>42</ele>
        <time>2021-05-03T16:29:20Z</time>
      </trkpt>
      <trkpt lat="47.04611" lon="-1.2018">
        <ele>41</ele>
        <time>2021-05-03T16:29:50Z</time>
      </trkpt>
      <trkpt lat="47.04576" lon="-1.20158">
        <ele>41</ele>
        <time>2021-05-03T16:30:41Z</time>
      </trkpt>
      <trkpt lat="47.04545" lon="-1.20146">
        <ele>41</ele>
        <time>2021-05-03T16:31:24Z</time>
      </trkpt>
      <trkpt lat="47.04518" lon="-1.2014">
        <ele>41</ele>
        <time>2021-05-03T16:32:00Z</time>
      </trkpt>
      <trkpt lat="47.04509" lon="-1.20131">
        <ele>42</ele>
        <time>2021-05-03T16:32:15Z</time>
      </trkpt>
      <trkpt lat="47.0448" lon="-1.20124">
        <ele>43</ele>
        <time>2021-05-03T16:32:54Z</time>
      </trkpt>
      <trkpt lat="47.04384" lon="-1.20123">
        <ele>45</ele>
        <time>2021-05-03T16:35:02Z</time>
      </trkpt>
      <trkpt lat="47.04362" lon="-1.20126">
        <ele>46</ele>
        <time>2021-05-03T16:35:31Z</time>
      </trkpt>
      <trkpt lat="47.04342" lon="-1.20144">
        <ele>45</ele>
        <time>2021-05-03T16:36:03Z</time>
      </trkpt>
      <trkpt lat="47.04321" lon="-1.20173">
        <ele>42</ele>
        <time>2021-05-03T16:36:41Z</time>
      </trkpt>
      <trkpt lat="47.04298" lon="-1.20195">
        <ele>41</ele>
        <time>2021-05-03T16:37:18Z</time>
      </trkpt>
      <trkpt lat="47.04278" lon="-1.20226">
        <ele>39</ele>
        <time>2021-05-03T16:37:57Z</time>
      </trkpt>
      <trkpt lat="47.04257" lon="-1.20241">
        <ele>38</ele>
        <time>2021-05-03T16:38:28Z</time>
      </trkpt>
      <trkpt lat="47.04232" lon="-1.20232">
        <ele>37</ele>
        <time>2021-05-03T16:39:02Z</time>
      </trkpt>
      <trkpt lat="47.04197" lon="-1.20229">
        <ele>36</ele>
        <time>2021-05-03T16:39:49Z</time>
      </trkpt>
      <trkpt lat="47.04193" lon="-1.20223">
        <ele>36</ele>
        <time>2021-05-03T16:39:57Z</time>
      </trkpt>
      <trkpt lat="47.04184" lon="-1.20218">
        <ele>36</ele>
        <time>2021-05-03T16:40:09Z</time>
      </trkpt>
      <trkpt lat="47.04182" lon="-1.20205">
        <ele>37</ele>
        <time>2021-05-03T16:40:22Z</time>
      </trkpt>
      <trkpt lat="47.04192" lon="-1.20199">
        <ele>38</ele>
        <time>2021-05-03T16:40:36Z</time>
      </trkpt>
      <trkpt lat="47.04189" lon="-1.20176">
        <ele>40</ele>
        <time>2021-05-03T16:40:57Z</time>
      </trkpt>
      <trkpt lat="47.04192" lon="-1.20153">
        <ele>42</ele>
        <time>2021-05-03T16:41:19Z</time>
      </trkpt>
      <trkpt lat="47.04178" lon="-1.20143">
        <ele>43</ele>
        <time>2021-05-03T16:41:39Z</time>
      </trkpt>
      <trkpt lat="47.04163" lon="-1.20137">
        <ele>43</ele>
        <time>2021-05-03T16:42:00Z</time>
      </trkpt>
      <trkpt lat="47.04151" lon="-1.20127">
        <ele>43</ele>
        <time>2021-05-03T16:42:18Z</time>
      </trkpt>
      <trkpt lat="47.0411" lon="-1.20112">
        <ele>41</ele>
        <time>2021-05-03T16:43:15Z</time>
      </trkpt>
      <trkpt lat="47.04077" lon="-1.20045">
        <ele>42</ele>
        <time>2021-05-03T16:44:30Z</time>
      </trkpt>
      <trkpt lat="47.04067" lon="-1.20003">
        <ele>43</ele>
        <time>2021-05-03T16:45:11Z</time>
      </trkpt>
      <trkpt lat="47.04062" lon="-1.19944">
        <ele>43</ele>
        <time>2021-05-03T16:46:05Z</time>
      </trkpt>
      <trkpt lat="47.04067" lon="-1.19881">
        <ele>43</ele>
        <time>2021-05-03T16:47:02Z</time>
      </trkpt>
      <trkpt lat="47.04051" lon="-1.19783">
        <ele>44</ele>
        <time>2021-05-03T16:48:34Z</time>
      </trkpt>
      <trkpt lat="47.04051" lon="-1.19729">
        <ele>47</ele>
        <time>2021-05-03T16:49:23Z</time>
      </trkpt>
      <trkpt lat="47.04041" lon="-1.19711">
        <ele>46</ele>
        <time>2021-05-03T16:49:44Z</time>
      </trkpt>
      <trkpt lat="47.04027" lon="-1.19706">
        <ele>44</ele>
        <time>2021-05-03T16:50:03Z</time>
      </trkpt>
      <trkpt lat="47.04006" lon="-1.19663">
        <ele>43</ele>
        <time>2021-05-03T16:50:51Z</time>
      </trkpt>
      <trkpt lat="47.03979" lon="-1.19594">
        <ele>45</ele>
        <time>2021-05-03T16:52:04Z</time>
      </trkpt>
      <trkpt lat="47.03962" lon="-1.19522">
        <ele>45</ele>
        <time>2021-05-03T16:53:13Z</time>
      </trkpt>
      <trkpt lat="47.03961" lon="-1.19481">
        <ele>45</ele>
        <time>2021-05-03T16:53:50Z</time>
      </trkpt>
      <trkpt lat="47.03964" lon="-1.19436">
        <ele>45</ele>
        <time>2021-05-03T16:54:32Z</time>
      </trkpt>
      <trkpt lat="47.03977" lon="-1.19354">
        <ele>43</ele>
        <time>2021-05-03T16:55:48Z</time>
      </trkpt>
      <trkpt lat="47.03974" lon="-1.1931">
        <ele>42</ele>
        <time>2021-05-03T16:56:28Z</time>
      </trkpt>
      <trkpt lat="47.03962" lon="-1.19252">
        <ele>40</ele>
        <time>2021-05-03T16:57:23Z</time>
      </trkpt>
      <trkpt lat="47.03991" lon="-1.1921">
        <ele>45</ele>
        <time>2021-05-03T16:58:18Z</time>
      </trkpt>
      <trkpt lat="47.03988" lon="-1.19201">
        <ele>46</ele>
        <time>2021-05-03T16:58:27Z</time>
      </trkpt>
      <trkpt lat="47.04037" lon="-1.19089">
        <ele>58</ele>
        <time>2021-05-03T17:00:28Z</time>
      </trkpt>
      <trkpt lat="47.04062" lon="-1.19045">
        <ele>63</ele>
        <time>2021-05-03T17:01:20Z</time>
      </trkpt>
      <trkpt lat="47.0409" lon="-1.19026">
        <ele>66</ele>
        <time>2021-05-03T17:02:01Z</time>
      </trkpt>
      <trkpt lat="47.04094" lon="-1.19011">
        <ele>67</ele>
        <time>2021-05-03T17:02:16Z</time>
      </trkpt>
      <trkpt lat="47.04053" lon="-1.189">
        <ele>69</ele>
        <time>2021-05-03T17:04:11Z</time>
      </trkpt>
      <trkpt lat="47.04048" lon="-1.18896">
        <ele>69</ele>
        <time>2021-05-03T17:04:18Z</time>
      </trkpt>
      <trkpt lat="47.04034" lon="-1.18892">
        <ele>68</ele>
        <time>2021-05-03T17:04:37Z</time>
      </trkpt>
      <trkpt lat="47.04024" lon="-1.18894">
        <ele>68</ele>
        <time>2021-05-03T17:04:51Z</time>
      </trkpt>
      <trkpt lat="47.0401" lon="-1.18899">
        <ele>67</ele>
        <time>2021-05-03T17:05:10Z</time>
      </trkpt>
      <trkpt lat="47.03982" lon="-1.18914">
        <ele>62</ele>
        <time>2021-05-03T17:05:50Z</time>
      </trkpt>
      <trkpt lat="47.0397" lon="-1.18914">
        <ele>60</ele>
        <time>2021-05-03T17:06:06Z</time>
      </trkpt>
      <trkpt lat="47.03961" lon="-1.18901">
        <ele>59</ele>
        <time>2021-05-03T17:06:23Z</time>
      </trkpt>
      <trkpt lat="47.03942" lon="-1.18908">
        <ele>54</ele>
        <time>2021-05-03T17:06:49Z</time>
      </trkpt>
      <trkpt lat="47.03915" lon="-1.18908">
        <ele>49</ele>
        <time>2021-05-03T17:07:25Z</time>
      </trkpt>
      <trkpt lat="47.03906" lon="-1.18899">
        <ele>49</ele>
        <time>2021-05-03T17:07:39Z</time>
      </trkpt>
      <trkpt lat="47.03875" lon="-1.18832">
        <ele>51</ele>
        <time>2021-05-03T17:08:53Z</time>
      </trkpt>
      <trkpt lat="47.03855" lon="-1.18802">
        <ele>52</ele>
        <time>2021-05-03T17:09:31Z</time>
      </trkpt>
      <trkpt lat="47.03852" lon="-1.18784">
        <ele>54</ele>
        <time>2021-05-03T17:09:48Z</time>
      </trkpt>
      <trkpt lat="47.03839" lon="-1.18772">
        <ele>54</ele>
        <time>2021-05-03T17:10:09Z</time>
      </trkpt>
      <trkpt lat="47.03826" lon="-1.18755">
        <ele>54</ele>
        <time>2021-05-03T17:10:32Z</time>
      </trkpt>
      <trkpt lat="47.0381" lon="-1.18716">
        <ele>53</ele>
        <time>2021-05-03T17:11:13Z</time>
      </trkpt>
      <trkpt lat="47.03805" lon="-1.1869">
        <ele>52</ele>
        <time>2021-05-03T17:11:38Z</time>
      </trkpt>
      <trkpt lat="47.03803" lon="-1.18647">
        <ele>52</ele>
        <time>2021-05-03T17:12:17Z</time>
      </trkpt>
      <trkpt lat="47.03794" lon="-1.18608">
        <ele>50</ele>
        <time>2021-05-03T17:12:54Z</time>
      </trkpt>
      <trkpt lat="47.03756" lon="-1.18542">
        <ele>45</ele>
        <time>2021-05-03T17:14:13Z</time>
      </trkpt>
      <trkpt lat="47.0373" lon="-1.18439">
        <ele>45</ele>
        <time>2021-05-03T17:15:53Z</time>
      </trkpt>
      <trkpt lat="47.03717" lon="-1.18435">
        <ele>44</ele>
        <time>2021-05-03T17:16:11Z</time>
      </trkpt>
      <trkpt lat="47.03706" lon="-1.1844">
        <ele>43</ele>
        <time>2021-05-03T17:16:26Z</time>
      </trkpt>
      <trkpt lat="47.03674" lon="-1.18446">
        <ele>41</ele>
        <time>2021-05-03T17:17:09Z</time>
      </trkpt>
      <trkpt lat="47.03635" lon="-1.18457">
        <ele>45</ele>
        <time>2021-05-03T17:18:02Z</time>
      </trkpt>
      <trkpt lat="47.03615" lon="-1.18465">
        <ele>48</ele>
        <time>2021-05-03T17:18:30Z</time>
      </trkpt>
      <trkpt lat="47.03606" lon="-1.1841">
        <ele>50</ele>
        <time>2021-05-03T17:19:21Z</time>
      </trkpt>
      <trkpt lat="47.03604" lon="-1.18375">
        <ele>50</ele>
        <time>2021-05-03T17:19:53Z</time>
      </trkpt>
      <trkpt lat="47.0361" lon="-1.18339">
        <ele>49</ele>
        <time>2021-05-03T17:20:27Z</time>
      </trkpt>
      <trkpt lat="47.03611" lon="-1.18292">
        <ele>48</ele>
        <time>2021-05-03T17:21:10Z</time>
      </trkpt>
      <trkpt lat="47.03597" lon="-1.18245">
        <ele>48</ele>
        <time>2021-05-03T17:21:56Z</time>
      </trkpt>
      <trkpt lat="47.03581" lon="-1.18212">
        <ele>48</ele>
        <time>2021-05-03T17:22:33Z</time>
      </trkpt>
      <trkpt lat="47.0355" lon="-1.18095">
        <ele>48</ele>
        <time>2021-05-03T17:24:27Z</time>
      </trkpt>
      <trkpt lat="47.03551" lon="-1.18069">
        <ele>47</ele>
        <time>2021-05-03T17:24:51Z</time>
      </trkpt>
      <trkpt lat="47.03554" lon="-1.18056">
        <ele>47</ele>
        <time>2021-05-03T17:25:03Z</time>
      </trkpt>
      <trkpt lat="47.03552" lon="-1.18014">
        <ele>47</ele>
        <time>2021-05-03T17:25:42Z</time>
      </trkpt>
      <trkpt lat="47.03548" lon="-1.18012">
        <ele>47</ele>
        <time>2021-05-03T17:25:47Z</time>
      </trkpt>
      <trkpt lat="47.03545" lon="-1.18004">
        <ele>48</ele>
        <time>2021-05-03T17:25:56Z</time>
      </trkpt>
      <trkpt lat="47.03552" lon="-1.18004">
        <ele>47</ele>
        <time>2021-05-03T17:26:05Z</time>
      </trkpt>
      <trkpt lat="47.03546" lon="-1.17985">
        <ele>48</ele>
        <time>2021-05-03T17:26:24Z</time>
      </trkpt>
      <trkpt lat="47.03547" lon="-1.17957">
        <ele>48</ele>
        <time>2021-05-03T17:26:49Z</time>
      </trkpt>
      <trkpt lat="47.03555" lon="-1.17907">
        <ele>47</ele>
        <time>2021-05-03T17:27:36Z</time>
      </trkpt>
      <trkpt lat="47.03552" lon="-1.17883">
        <ele>48</ele>
        <time>2021-05-03T17:27:58Z</time>
      </trkpt>
      <trkpt lat="47.0354" lon="-1.17853">
        <ele>51</ele>
        <time>2021-05-03T17:28:30Z</time>
      </trkpt>
      <trkpt lat="47.03516" lon="-1.17732">
        <ele>52</ele>
        <time>2021-05-03T17:30:25Z</time>
      </trkpt>
      <trkpt lat="47.03508" lon="-1.17678">
        <ele>52</ele>
        <time>2021-05-03T17:31:15Z</time>
      </trkpt>
      <trkpt lat="47.03497" lon="-1.17655">
        <ele>51</ele>
        <time>2021-05-03T17:31:40Z</time>
      </trkpt>
      <trkpt lat="47.03482" lon="-1.17631">
        <ele>51</ele>
        <time>2021-05-03T17:32:10Z</time>
      </trkpt>
      <trkpt lat="47.03475" lon="-1.17624">
        <ele>52</ele>
        <time>2021-05-03T17:32:21Z</time>
      </trkpt>
      <trkpt lat="47.03452" lon="-1.17624">
        <ele>55</ele>
        <time>2021-05-03T17:32:52Z</time>
      </trkpt>
      <trkpt lat="47.03432" lon="-1.17637">
        <ele>59</ele>
        <time>2021-05-03T17:33:21Z</time>
      </trkpt>
      <trkpt lat="47.03411" lon="-1.17665">
        <ele>62</ele>
        <time>2021-05-03T17:33:59Z</time>
      </trkpt>
      <trkpt lat="47.03361" lon="-1.17723">
        <ele>67</ele>
        <time>2021-05-03T17:35:24Z</time>
      </trkpt>
      <trkpt lat="47.03287" lon="-1.17791">
        <ele>73</ele>
        <time>2021-05-03T17:37:21Z</time>
      </trkpt>
      <trkpt lat="47.03253" lon="-1.17792">
        <ele>75</ele>
        <time>2021-05-03T17:38:06Z</time>
      </trkpt>
      <trkpt lat="47.03204" lon="-1.17784">
        <ele>75</ele>
        <time>2021-05-03T17:39:12Z</time>
      </trkpt>
      <trkpt lat="47.0318" lon="-1.17786">
        <ele>75</ele>
        <time>2021-05-03T17:39:44Z</time>
      </trkpt>
      <trkpt lat="47.03124" lon="-1.1781">
        <ele>74</ele>
        <time>2021-05-03T17:41:02Z</time>
      </trkpt>
      <trkpt lat="47.03096" lon="-1.17827">
        <ele>73</ele>
        <time>2021-05-03T17:41:42Z</time>
      </trkpt>
      <trkpt lat="47.03086" lon="-1.17827">
        <ele>73</ele>
        <time>2021-05-03T17:41:56Z</time>
      </trkpt>
      <trkpt lat="47.03088" lon="-1.17806">
        <ele>74</ele>
        <time>2021-05-03T17:42:15Z</time>
      </trkpt>
      <trkpt lat="47.03077" lon="-1.17557">
        <ele>77</ele>
        <time>2021-05-03T17:46:02Z</time>
      </trkpt>
      <trkpt lat="47.0306" lon="-1.17537">
        <ele>77</ele>
        <time>2021-05-03T17:46:31Z</time>
      </trkpt>
      <trkpt lat="47.03052" lon="-1.1751">
        <ele>77</ele>
        <time>2021-05-03T17:46:58Z</time>
      </trkpt>
      <trkpt lat="47.03056" lon="-1.17467">
        <ele>78</ele>
        <time>2021-05-03T17:47:37Z</time>
      </trkpt>
      <trkpt lat="47.03054" lon="-1.17397">
        <ele>78</ele>
        <time>2021-05-03T17:48:41Z</time>
      </trkpt>
      <trkpt lat="47.03022" lon="-1.17191">
        <ele>82</ele>
        <time>2021-05-03T17:51:53Z</time>
      </trkpt>
      <trkpt lat="47.02998" lon="-1.17078">
        <ele>84</ele>
        <time>2021-05-03T17:53:41Z</time>
      </trkpt>
      <trkpt lat="47.02997" lon="-1.16964">
        <ele>84</ele>
        <time>2021-05-03T17:55:24Z</time>
      </trkpt>
      <trkpt lat="47.02941" lon="-1.16691">
        <ele>84</ele>
        <time>2021-05-03T17:59:44Z</time>
      </trkpt>
      <trkpt lat="47.02914" lon="-1.16512">
        <ele>83</ele>
        <time>2021-05-03T18:02:31Z</time>
      </trkpt>
      <trkpt lat="47.02909" lon="-1.16485">
        <ele>83</ele>
        <time>2021-05-03T18:02:56Z</time>
      </trkpt>
      <trkpt lat="47.02902" lon="-1.16463">
        <ele>84</ele>
        <time>2021-05-03T18:03:18Z</time>
      </trkpt>
      <trkpt lat="47.02907" lon="-1.16441">
        <ele>84</ele>
        <time>2021-05-03T18:03:39Z</time>
      </trkpt>
      <trkpt lat="47.0294" lon="-1.16406">
        <ele>84</ele>
        <time>2021-05-03T18:04:33Z</time>
      </trkpt>
      <trkpt lat="47.02966" lon="-1.16341">
        <ele>83</ele>
        <time>2021-05-03T18:05:42Z</time>
      </trkpt>
      <trkpt lat="47.03025" lon="-1.16242">
        <ele>80</ele>
        <time>2021-05-03T18:07:42Z</time>
      </trkpt>
      <trkpt lat="47.0304" lon="-1.16229">
        <ele>78</ele>
        <time>2021-05-03T18:08:05Z</time>
      </trkpt>
      <trkpt lat="47.03055" lon="-1.16227">
        <ele>76</ele>
        <time>2021-05-03T18:08:25Z</time>
      </trkpt>
      <trkpt lat="47.03065" lon="-1.16215">
        <ele>74</ele>
        <time>2021-05-03T18:08:42Z</time>
      </trkpt>
      <trkpt lat="47.03063" lon="-1.162">
        <ele>74</ele>
        <time>2021-05-03T18:08:56Z</time>
      </trkpt>
      <trkpt lat="47.03065" lon="-1.16184">
        <ele>73</ele>
        <time>2021-05-03T18:09:11Z</time>
      </trkpt>
      <trkpt lat="47.0308" lon="-1.16166">
        <ele>69</ele>
        <time>2021-05-03T18:09:37Z</time>
      </trkpt>
      <trkpt lat="47.03089" lon="-1.16143">
        <ele>68</ele>
        <time>2021-05-03T18:10:01Z</time>
      </trkpt>
      <trkpt lat="47.03084" lon="-1.16113">
        <ele>69</ele>
        <time>2021-05-03T18:10:29Z</time>
      </trkpt>
      <trkpt lat="47.03083" lon="-1.16079">
        <ele>69</ele>
        <time>2021-05-03T18:11:00Z</time>
      </trkpt>
      <trkpt lat="47.03095" lon="-1.1604">
        <ele>67</ele>
        <time>2021-05-03T18:11:39Z</time>
      </trkpt>
      <trkpt lat="47.03108" lon="-1.16012">
        <ele>64</ele>
        <time>2021-05-03T18:12:10Z</time>
      </trkpt>
      <trkpt lat="47.03118" lon="-1.16004">
        <ele>63</ele>
        <time>2021-05-03T18:12:25Z</time>
      </trkpt>
      <trkpt lat="47.03135" lon="-1.15997">
        <ele>60</ele>
        <time>2021-05-03T18:12:48Z</time>
      </trkpt>
      <trkpt lat="47.03153" lon="-1.15967">
        <ele>57</ele>
        <time>2021-05-03T18:13:25Z</time>
      </trkpt>
      <trkpt lat="47.03169" lon="-1.15933">
        <ele>54</ele>
        <time>2021-05-03T18:14:02Z</time>
      </trkpt>
      <trkpt lat="47.03172" lon="-1.15909">
        <ele>54</ele>
        <time>2021-05-03T18:14:25Z</time>
      </trkpt>
      <trkpt lat="47.03178" lon="-1.15754">
        <ele>55</ele>
        <time>2021-05-03T18:16:46Z</time>
      </trkpt>
      <trkpt lat="47.03173" lon="-1.15726">
        <ele>54</ele>
        <time>2021-05-03T18:17:12Z</time>
      </trkpt>
      <trkpt lat="47.03172" lon="-1.15698">
        <ele>52</ele>
        <time>2021-05-03T18:17:38Z</time>
      </trkpt>
      <trkpt lat="47.03164" lon="-1.1566">
        <ele>50</ele>
        <time>2021-05-03T18:18:14Z</time>
      </trkpt>
      <trkpt lat="47.0316" lon="-1.15645">
        <ele>50</ele>
        <time>2021-05-03T18:18:28Z</time>
      </trkpt>
      <trkpt lat="47.03151" lon="-1.15636">
        <ele>51</ele>
        <time>2021-05-03T18:18:43Z</time>
      </trkpt>
      <trkpt lat="47.03144" lon="-1.1562">
        <ele>51</ele>
        <time>2021-05-03T18:19:00Z</time>
      </trkpt>
      <trkpt lat="47.03137" lon="-1.15595">
        <ele>50</ele>
        <time>2021-05-03T18:19:25Z</time>
      </trkpt>
      <trkpt lat="47.03124" lon="-1.1558">
        <ele>51</ele>
        <time>2021-05-03T18:19:47Z</time>
      </trkpt>
      <trkpt lat="47.03102" lon="-1.15578">
        <ele>54</ele>
        <time>2021-05-03T18:20:16Z</time>
      </trkpt>
      <trkpt lat="47.03069" lon="-1.15565">
        <ele>57</ele>
        <time>2021-05-03T18:21:02Z</time>
      </trkpt>
      <trkpt lat="47.03055" lon="-1.15535">
        <ele>55</ele>
        <time>2021-05-03T18:21:35Z</time>
      </trkpt>
      <trkpt lat="47.03053" lon="-1.15525">
        <ele>54</ele>
        <time>2021-05-03T18:21:44Z</time>
      </trkpt>
      <trkpt lat="47.03048" lon="-1.15519">
        <ele>55</ele>
        <time>2021-05-03T18:21:53Z</time>
      </trkpt>
      <trkpt lat="47.03044" lon="-1.15505">
        <ele>54</ele>
        <time>2021-05-03T18:22:07Z</time>
      </trkpt>
      <trkpt lat="47.03035" lon="-1.15494">
        <ele>55</ele>
        <time>2021-05-03T18:22:23Z</time>
      </trkpt>
      <trkpt lat="47.03021" lon="-1.15485">
        <ele>59</ele>
        <time>2021-05-03T18:22:43Z</time>
      </trkpt>
      <trkpt lat="47.03014" lon="-1.15473">
        <ele>60</ele>
        <time>2021-05-03T18:22:57Z</time>
      </trkpt>
      <trkpt lat="47.03007" lon="-1.15388">
        <ele>60</ele>
        <time>2021-05-03T18:24:15Z</time>
      </trkpt>
      <trkpt lat="47.02992" lon="-1.15307">
        <ele>55</ele>
        <time>2021-05-03T18:25:32Z</time>
      </trkpt>
      <trkpt lat="47.0298" lon="-1.15257">
        <ele>49</ele>
        <time>2021-05-03T18:26:20Z</time>
      </trkpt>
      <trkpt lat="47.02972" lon="-1.15241">
        <ele>49</ele>
        <time>2021-05-03T18:26:38Z</time>
      </trkpt>
      <trkpt lat="47.02966" lon="-1.15215">
        <ele>48</ele>
        <time>2021-05-03T18:27:03Z</time>
      </trkpt>
      <trkpt lat="47.0295" lon="-1.15191">
        <ele>48</ele>
        <time>2021-05-03T18:27:33Z</time>
      </trkpt>
      <trkpt lat="47.02951" lon="-1.15156">
        <ele>46</ele>
        <time>2021-05-03T18:28:05Z</time>
      </trkpt>
      <trkpt lat="47.02946" lon="-1.15149">
        <ele>46</ele>
        <time>2021-05-03T18:28:14Z</time>
      </trkpt>
      <trkpt lat="47.02938" lon="-1.15151">
        <ele>47</ele>
        <time>2021-05-03T18:28:25Z</time>
      </trkpt>
      <trkpt lat="47.02917" lon="-1.15145">
        <ele>48</ele>
        <time>2021-05-03T18:28:54Z</time>
      </trkpt>
      <trkpt lat="47.02906" lon="-1.15144">
        <ele>48</ele>
        <time>2021-05-03T18:29:08Z</time>
      </trkpt>
      <trkpt lat="47.02895" lon="-1.1515">
        <ele>49</ele>
        <time>2021-05-03T18:29:24Z</time>
      </trkpt>
      <trkpt lat="47.0289" lon="-1.15147">
        <ele>49</ele>
        <time>2021-05-03T18:29:31Z</time>
      </trkpt>
      <trkpt lat="47.02888" lon="-1.1514">
        <ele>49</ele>
        <time>2021-05-03T18:29:38Z</time>
      </trkpt>
      <trkpt lat="47.029" lon="-1.15046">
        <ele>45</ele>
        <time>2021-05-03T18:31:05Z</time>
      </trkpt>
      <trkpt lat="47.02898" lon="-1.15018">
        <ele>44</ele>
        <time>2021-05-03T18:31:31Z</time>
      </trkpt>
      <trkpt lat="47.02901" lon="-1.14998">
        <ele>44</ele>
        <time>2021-05-03T18:31:49Z</time>
      </trkpt>
      <trkpt lat="47.029" lon="-1.14862">
        <ele>43</ele>
        <time>2021-05-03T18:33:53Z</time>
      </trkpt>
      <trkpt lat="47.02905" lon="-1.14847">
        <ele>43</ele>
        <time>2021-05-03T18:34:08Z</time>
      </trkpt>
      <trkpt lat="47.02902" lon="-1.1484">
        <ele>43</ele>
        <time>2021-05-03T18:34:16Z</time>
      </trkpt>
      <trkpt lat="47.02929" lon="-1.14788">
        <ele>45</ele>
        <time>2021-05-03T18:35:15Z</time>
      </trkpt>
      <trkpt lat="47.0294" lon="-1.14761">
        <ele>46</ele>
        <time>2021-05-03T18:35:44Z</time>
      </trkpt>
      <trkpt lat="47.02942" lon="-1.14748">
        <ele>47</ele>
        <time>2021-05-03T18:35:56Z</time>
      </trkpt>
      <trkpt lat="47.02939" lon="-1.1473">
        <ele>47</ele>
        <time>2021-05-03T18:36:13Z</time>
      </trkpt>
      <trkpt lat="47.02991" lon="-1.14728">
        <ele>49</ele>
        <time>2021-05-03T18:37:22Z</time>
      </trkpt>
      <trkpt lat="47.02999" lon="-1.14733">
        <ele>50</ele>
        <time>2021-05-03T18:37:34Z</time>
      </trkpt>
      <trkpt lat="47.03003" lon="-1.14789">
        <ele>50</ele>
        <time>2021-05-03T18:38:25Z</time>
      </trkpt>
      <trkpt lat="47.03013" lon="-1.14812">
        <ele>52</ele>
        <time>2021-05-03T18:38:50Z</time>
      </trkpt>
      <trkpt lat="47.03011" lon="-1.14827">
        <ele>51</ele>
        <time>2021-05-03T18:39:04Z</time>
      </trkpt>
      <trkpt lat="47.03013" lon="-1.14864">
        <ele>51</ele>
        <time>2021-05-03T18:39:38Z</time>
      </trkpt>
      <trkpt lat="47.03018" lon="-1.14882">
        <ele>52</ele>
        <time>2021-05-03T18:39:55Z</time>
      </trkpt>
      <trkpt lat="47.0304" lon="-1.14937">
        <ele>54</ele>
        <time>2021-05-03T18:40:53Z</time>
      </trkpt>
      <trkpt lat="47.03048" lon="-1.14948">
        <ele>55</ele>
        <time>2021-05-03T18:41:08Z</time>
      </trkpt>
      <trkpt lat="47.03061" lon="-1.14959">
        <ele>57</ele>
        <time>2021-05-03T18:41:28Z</time>
      </trkpt>
      <trkpt lat="47.03079" lon="-1.14963">
        <ele>60</ele>
        <time>2021-05-03T18:41:52Z</time>
      </trkpt>
      <trkpt lat="47.03128" lon="-1.14963">
        <ele>67</ele>
        <time>2021-05-03T18:42:58Z</time>
      </trkpt>
      <trkpt lat="47.03152" lon="-1.14972">
        <ele>70</ele>
        <time>2021-05-03T18:43:31Z</time>
      </trkpt>
      <trkpt lat="47.03192" lon="-1.15004">
        <ele>73</ele>
        <time>2021-05-03T18:44:32Z</time>
      </trkpt>
      <trkpt lat="47.03213" lon="-1.15027">
        <ele>75</ele>
        <time>2021-05-03T18:45:07Z</time>
      </trkpt>
      <trkpt lat="47.03231" lon="-1.1509">
        <ele>76</ele>
        <time>2021-05-03T18:46:09Z</time>
      </trkpt>
      <trkpt lat="47.03246" lon="-1.15183">
        <ele>78</ele>
        <time>2021-05-03T18:47:36Z</time>
      </trkpt>
      <trkpt lat="47.03267" lon="-1.1528">
        <ele>75</ele>
        <time>2021-05-03T18:49:08Z</time>
      </trkpt>
      <trkpt lat="47.03272" lon="-1.15331">
        <ele>73</ele>
        <time>2021-05-03T18:49:55Z</time>
      </trkpt>
      <trkpt lat="47.03284" lon="-1.1537">
        <ele>72</ele>
        <time>2021-05-03T18:50:34Z</time>
      </trkpt>
      <trkpt lat="47.03351" lon="-1.1554">
        <ele>68</ele>
        <time>2021-05-03T18:53:33Z</time>
      </trkpt>
      <trkpt lat="47.03361" lon="-1.15559">
        <ele>67</ele>
        <time>2021-05-03T18:53:54Z</time>
      </trkpt>
      <trkpt lat="47.03378" lon="-1.15582">
        <ele>67</ele>
        <time>2021-05-03T18:54:25Z</time>
      </trkpt>
      <trkpt lat="47.03407" lon="-1.15611">
        <ele>68</ele>
        <time>2021-05-03T18:55:12Z</time>
      </trkpt>
      <trkpt lat="47.03421" lon="-1.15639">
        <ele>67</ele>
        <time>2021-05-03T18:55:44Z</time>
      </trkpt>
      <trkpt lat="47.0343" lon="-1.1567">
        <ele>66</ele>
        <time>2021-05-03T18:56:14Z</time>
      </trkpt>
      <trkpt lat="47.03428" lon="-1.157">
        <ele>64</ele>
        <time>2021-05-03T18:56:42Z</time>
      </trkpt>
      <trkpt lat="47.03431" lon="-1.15723">
        <ele>64</ele>
        <time>2021-05-03T18:57:03Z</time>
      </trkpt>
      <trkpt lat="47.03436" lon="-1.15732">
        <ele>64</ele>
        <time>2021-05-03T18:57:14Z</time>
      </trkpt>
      <trkpt lat="47.03437" lon="-1.15743">
        <ele>64</ele>
        <time>2021-05-03T18:57:24Z</time>
      </trkpt>
      <trkpt lat="47.03445" lon="-1.15759">
        <ele>65</ele>
        <time>2021-05-03T18:57:42Z</time>
      </trkpt>
      <trkpt lat="47.0346" lon="-1.1578">
        <ele>69</ele>
        <time>2021-05-03T18:58:09Z</time>
      </trkpt>
      <trkpt lat="47.03464" lon="-1.15792">
        <ele>70</ele>
        <time>2021-05-03T18:58:22Z</time>
      </trkpt>
      <trkpt lat="47.0348" lon="-1.15814">
        <ele>73</ele>
        <time>2021-05-03T18:58:51Z</time>
      </trkpt>
      <trkpt lat="47.03497" lon="-1.15832">
        <ele>76</ele>
        <time>2021-05-03T18:59:19Z</time>
      </trkpt>
      <trkpt lat="47.03536" lon="-1.15856">
        <ele>73</ele>
        <time>2021-05-03T19:00:15Z</time>
      </trkpt>
      <trkpt lat="47.0358" lon="-1.1587">
        <ele>70</ele>
        <time>2021-05-03T19:01:15Z</time>
      </trkpt>
      <trkpt lat="47.03611" lon="-1.15885">
        <ele>69</ele>
        <time>2021-05-03T19:01:59Z</time>
      </trkpt>
      <trkpt lat="47.03618" lon="-1.15899">
        <ele>68</ele>
        <time>2021-05-03T19:02:15Z</time>
      </trkpt>
      <trkpt lat="47.03615" lon="-1.15906">
        <ele>68</ele>
        <time>2021-05-03T19:02:22Z</time>
      </trkpt>
      <trkpt lat="47.03616" lon="-1.15994">
        <ele>69</ele>
        <time>2021-05-03T19:03:42Z</time>
      </trkpt>
      <trkpt lat="47.03611" lon="-1.16016">
        <ele>69</ele>
        <time>2021-05-03T19:04:03Z</time>
      </trkpt>
      <trkpt lat="47.03606" lon="-1.1608">
        <ele>71</ele>
        <time>2021-05-03T19:05:02Z</time>
      </trkpt>
      <trkpt lat="47.03621" lon="-1.16158">
        <ele>74</ele>
        <time>2021-05-03T19:06:16Z</time>
      </trkpt>
      <trkpt lat="47.03625" lon="-1.16192">
        <ele>74</ele>
        <time>2021-05-03T19:06:47Z</time>
      </trkpt>
      <trkpt lat="47.03639" lon="-1.16395">
        <ele>75</ele>
        <time>2021-05-03T19:09:53Z</time>
      </trkpt>
      <trkpt lat="47.03644" lon="-1.16432">
        <ele>75</ele>
        <time>2021-05-03T19:10:27Z</time>
      </trkpt>
      <trkpt lat="47.03692" lon="-1.16714">
        <ele>75</ele>
        <time>2021-05-03T19:14:51Z</time>
      </trkpt>
      <trkpt lat="47.03709" lon="-1.1679">
        <ele>73</ele>
        <time>2021-05-03T19:16:04Z</time>
      </trkpt>
      <trkpt lat="47.03708" lon="-1.16839">
        <ele>72</ele>
        <time>2021-05-03T19:16:49Z</time>
      </trkpt>
      <trkpt lat="47.03704" lon="-1.16875">
        <ele>70</ele>
        <time>2021-05-03T19:17:22Z</time>
      </trkpt>
      <trkpt lat="47.03693" lon="-1.16914">
        <ele>69</ele>
        <time>2021-05-03T19:18:00Z</time>
      </trkpt>
      <trkpt lat="47.0369" lon="-1.16936">
        <ele>68</ele>
        <time>2021-05-03T19:18:21Z</time>
      </trkpt>
      <trkpt lat="47.03691" lon="-1.16972">
        <ele>68</ele>
        <time>2021-05-03T19:18:53Z</time>
      </trkpt>
      <trkpt lat="47.03705" lon="-1.17042">
        <ele>68</ele>
        <time>2021-05-03T19:20:00Z</time>
      </trkpt>
      <trkpt lat="47.03714" lon="-1.17077">
        <ele>68</ele>
        <time>2021-05-03T19:20:34Z</time>
      </trkpt>
      <trkpt lat="47.03727" lon="-1.17114">
        <ele>67</ele>
        <time>2021-05-03T19:21:11Z</time>
      </trkpt>
      <trkpt lat="47.03748" lon="-1.1722">
        <ele>64</ele>
        <time>2021-05-03T19:22:52Z</time>
      </trkpt>
      <trkpt lat="47.03747" lon="-1.17245">
        <ele>63</ele>
        <time>2021-05-03T19:23:15Z</time>
      </trkpt>
      <trkpt lat="47.03733" lon="-1.17282">
        <ele>63</ele>
        <time>2021-05-03T19:23:53Z</time>
      </trkpt>
      <trkpt lat="47.03729" lon="-1.17303">
        <ele>64</ele>
        <time>2021-05-03T19:24:13Z</time>
      </trkpt>
      <trkpt lat="47.0373" lon="-1.17335">
        <ele>64</ele>
        <time>2021-05-03T19:24:42Z</time>
      </trkpt>
      <trkpt lat="47.0375" lon="-1.17445">
        <ele>67</ele>
        <time>2021-05-03T19:26:26Z</time>
      </trkpt>
      <trkpt lat="47.03703" lon="-1.17482">
        <ele>65</ele>
        <time>2021-05-03T19:27:37Z</time>
      </trkpt>
      <trkpt lat="47.03676" lon="-1.17497">
        <ele>63</ele>
        <time>2021-05-03T19:28:15Z</time>
      </trkpt>
      <trkpt lat="47.03657" lon="-1.17507">
        <ele>61</ele>
        <time>2021-05-03T19:28:42Z</time>
      </trkpt>
      <trkpt lat="47.036" lon="-1.17528">
        <ele>54</ele>
        <time>2021-05-03T19:30:01Z</time>
      </trkpt>
      <trkpt lat="47.03596" lon="-1.17539">
        <ele>53</ele>
        <time>2021-05-03T19:30:12Z</time>
      </trkpt>
      <trkpt lat="47.03594" lon="-1.17567">
        <ele>52</ele>
        <time>2021-05-03T19:30:38Z</time>
      </trkpt>
      <trkpt lat="47.03601" lon="-1.17595">
        <ele>52</ele>
        <time>2021-05-03T19:31:05Z</time>
      </trkpt>
      <trkpt lat="47.0361" lon="-1.17615">
        <ele>53</ele>
        <time>2021-05-03T19:31:27Z</time>
      </trkpt>
      <trkpt lat="47.03616" lon="-1.17649">
        <ele>54</ele>
        <time>2021-05-03T19:31:59Z</time>
      </trkpt>
      <trkpt lat="47.03625" lon="-1.17671">
        <ele>55</ele>
        <time>2021-05-03T19:32:22Z</time>
      </trkpt>
      <trkpt lat="47.03631" lon="-1.17699">
        <ele>55</ele>
        <time>2021-05-03T19:32:49Z</time>
      </trkpt>
      <trkpt lat="47.03636" lon="-1.17752">
        <ele>53</ele>
        <time>2021-05-03T19:33:37Z</time>
      </trkpt>
      <trkpt lat="47.03633" lon="-1.17771">
        <ele>52</ele>
        <time>2021-05-03T19:33:55Z</time>
      </trkpt>
      <trkpt lat="47.03637" lon="-1.17803">
        <ele>52</ele>
        <time>2021-05-03T19:34:25Z</time>
      </trkpt>
      <trkpt lat="47.03638" lon="-1.17857">
        <ele>51</ele>
        <time>2021-05-03T19:35:14Z</time>
      </trkpt>
      <trkpt lat="47.03637" lon="-1.1789">
        <ele>50</ele>
        <time>2021-05-03T19:35:44Z</time>
      </trkpt>
      <trkpt lat="47.03632" lon="-1.17934">
        <ele>48</ele>
        <time>2021-05-03T19:36:24Z</time>
      </trkpt>
      <trkpt lat="47.03635" lon="-1.17954">
        <ele>49</ele>
        <time>2021-05-03T19:36:43Z</time>
      </trkpt>
      <trkpt lat="47.03634" lon="-1.17976">
        <ele>48</ele>
        <time>2021-05-03T19:37:03Z</time>
      </trkpt>
      <trkpt lat="47.03643" lon="-1.18052">
        <ele>49</ele>
        <time>2021-05-03T19:38:13Z</time>
      </trkpt>
      <trkpt lat="47.03676" lon="-1.18203">
        <ele>47</ele>
        <time>2021-05-03T19:40:37Z</time>
      </trkpt>
      <trkpt lat="47.03699" lon="-1.18278">
        <ele>49</ele>
        <time>2021-05-03T19:41:52Z</time>
      </trkpt>
      <trkpt lat="47.03706" lon="-1.1831">
        <ele>48</ele>
        <time>2021-05-03T19:42:23Z</time>
      </trkpt>
      <trkpt lat="47.03704" lon="-1.18329">
        <ele>47</ele>
        <time>2021-05-03T19:42:40Z</time>
      </trkpt>
      <trkpt lat="47.03724" lon="-1.18416">
        <ele>45</ele>
        <time>2021-05-03T19:44:04Z</time>
      </trkpt>
      <trkpt lat="47.03725" lon="-1.18433">
        <ele>45</ele>
        <time>2021-05-03T19:44:19Z</time>
      </trkpt>
      <trkpt lat="47.03638" lon="-1.18455">
        <ele>45</ele>
        <time>2021-05-03T19:46:17Z</time>
      </trkpt>
      <trkpt lat="47.03626" lon="-1.1846">
        <ele>46</ele>
        <time>2021-05-03T19:46:34Z</time>
      </trkpt>
      <trkpt lat="47.03616" lon="-1.18471">
        <ele>48</ele>
        <time>2021-05-03T19:46:50Z</time>
      </trkpt>
      <trkpt lat="47.03608" lon="-1.18439">
        <ele>49</ele>
        <time>2021-05-03T19:47:21Z</time>
      </trkpt>
      <trkpt lat="47.03604" lon="-1.18403">
        <ele>50</ele>
        <time>2021-05-03T19:47:55Z</time>
      </trkpt>
    </trkseg>
  </trk>
</gpx>